createdAt,value
2022-12-31T00:01:41.129Z,98265.66
2022-12-31T00:04:07.645Z,98265.56
2022-12-31T00:06:35.683Z,98259.22
2022-12-31T00:09:05.689Z,98273.53
2022-12-31T00:11:35.004Z,98278.28
2022-12-31T00:14:03.447Z,98280.31
2022-12-31T00:16:32.022Z,98274.59
2022-12-31T00:19:00.289Z,98280.47
2022-12-31T00:21:28.460Z,98279.69
2022-12-31T00:23:55.463Z,98278.09
2022-12-31T00:26:24.119Z,98292.16
2022-12-31T00:28:52.020Z,98293.47
2022-12-31T00:31:23.129Z,98307.69
2022-12-31T00:33:50.062Z,98297.13
2022-12-31T00:36:19.288Z,98299.94
2022-12-31T00:38:47.731Z,98285.47
2022-12-31T00:41:16.382Z,98291.28
2022-12-31T00:43:43.571Z,98291.88
2022-12-31T00:46:11.492Z,98300.34
2022-12-31T00:48:39.620Z,98290.50
2022-12-31T00:51:10.481Z,98293.75
2022-12-31T00:53:38.274Z,98297.53
2022-12-31T00:56:07.685Z,98300.88
2022-12-31T00:58:34.784Z,98293.66
2022-12-31T01:01:08.743Z,98299.41
2022-12-31T01:03:35.612Z,98294.47
2022-12-31T01:06:03.914Z,98291.19
2022-12-31T01:08:30.618Z,98285.56
2022-12-31T01:10:57.126Z,98289.34
2022-12-31T01:13:23.627Z,98281.91
2022-12-31T01:15:50.190Z,98277.50
2022-12-31T01:18:16.888Z,98283.59
2022-12-31T01:20:43.949Z,98282.78
2022-12-31T01:23:11.917Z,98286.03
2022-12-31T01:25:40.233Z,98284.63
2022-12-31T01:28:07.484Z,98280.38
2022-12-31T01:30:34.121Z,98280.81
2022-12-31T01:33:00.861Z,98283.66
2022-12-31T01:35:27.450Z,98307.09
2022-12-31T01:37:54.015Z,98303.22
2022-12-31T01:40:21.853Z,98292.56
2022-12-31T01:42:54.271Z,98304.16
2022-12-31T01:45:21.024Z,98297.47
2022-12-31T01:47:50.611Z,98297.56
2022-12-31T01:50:20.960Z,98294.19
2022-12-31T01:52:50.570Z,98288.88
2022-12-31T01:55:19.926Z,98306.94
2022-12-31T01:57:50.986Z,98296.44
2022-12-31T02:00:17.753Z,98294.94
2022-12-31T02:02:44.570Z,98284.38
2022-12-31T02:05:18.649Z,98282.38
2022-12-31T02:07:47.331Z,98285.28
2022-12-31T02:10:14.056Z,98286.09
2022-12-31T02:12:41.092Z,98284.44
2022-12-31T02:15:10.309Z,98286.88
2022-12-31T02:17:47.756Z,98290.19
2022-12-31T02:20:52.905Z,98293.84
2022-12-31T02:23:59.715Z,98274.72
2022-12-31T02:26:49.615Z,98273.31
2022-12-31T02:29:48.848Z,98275.94
2022-12-31T02:32:22.082Z,98273.44
2022-12-31T02:34:52.744Z,98262.84
2022-12-31T02:37:22.240Z,98263.56
2022-12-31T02:39:49.579Z,98262.06
2022-12-31T02:42:16.100Z,98254.00
2022-12-31T02:44:43.185Z,98254.69
2022-12-31T02:47:27.053Z,98260.25
2022-12-31T02:50:10.997Z,98248.44
2022-12-31T02:52:49.787Z,98252.03
2022-12-31T02:55:24.388Z,98249.28
2022-12-31T02:57:56.813Z,98262.41
2022-12-31T03:00:23.812Z,98256.94
2022-12-31T03:02:52.791Z,98263.25
2022-12-31T03:05:23.280Z,98265.63
2022-12-31T03:07:50.032Z,98281.34
2022-12-31T03:10:16.851Z,98255.13
2022-12-31T03:12:44.339Z,98275.09
2022-12-31T03:15:12.123Z,98273.88
2022-12-31T03:17:38.819Z,98290.50
2022-12-31T03:20:07.594Z,98286.94
2022-12-31T03:22:37.308Z,98287.53
2022-12-31T03:25:07.453Z,98283.06
2022-12-31T03:27:34.037Z,98284.19
2022-12-31T03:30:00.784Z,98293.91
2022-12-31T03:32:27.312Z,98309.50
2022-12-31T03:34:53.869Z,98315.13
2022-12-31T03:37:21.981Z,98284.88
2022-12-31T03:39:48.495Z,98299.38
2022-12-31T03:42:15.008Z,98296.22
2022-12-31T03:44:41.531Z,98304.81
2022-12-31T03:47:08.070Z,98303.69
2022-12-31T03:49:34.772Z,98311.63
2022-12-31T03:52:01.294Z,98317.84
2022-12-31T03:54:29.490Z,98303.75
2022-12-31T03:57:00.108Z,98303.81
2022-12-31T03:59:27.107Z,98311.50
2022-12-31T04:01:53.744Z,98308.06
2022-12-31T04:04:20.605Z,98310.06
2022-12-31T04:06:48.103Z,98311.88
2022-12-31T04:09:14.725Z,98307.31
2022-12-31T04:11:42.611Z,98315.41
2022-12-31T04:14:09.172Z,98291.50
2022-12-31T04:16:35.812Z,98309.28
2022-12-31T04:19:02.424Z,98310.13
2022-12-31T04:21:34.803Z,98308.97
2022-12-31T04:24:02.115Z,98307.03
2022-12-31T04:26:28.886Z,98305.88
2022-12-31T04:28:56.794Z,98314.13
2022-12-31T04:31:23.553Z,98307.47
2022-12-31T04:33:50.158Z,98314.56
2022-12-31T04:36:16.911Z,98305.66
2022-12-31T04:38:43.652Z,98308.81
2022-12-31T04:41:10.287Z,98327.94
2022-12-31T04:43:36.772Z,98319.41
2022-12-31T04:46:04.950Z,98318.75
2022-12-31T04:48:31.502Z,98316.50
2022-12-31T04:50:57.997Z,98317.94
2022-12-31T04:53:24.684Z,98315.66
2022-12-31T04:55:51.261Z,98311.66
2022-12-31T04:58:18.470Z,98306.97
2022-12-31T05:00:46.183Z,98321.06
2022-12-31T05:03:14.240Z,98310.94
2022-12-31T05:05:41.422Z,98326.53
2022-12-31T05:08:08.115Z,98321.47
2022-12-31T05:10:34.682Z,98318.38
2022-12-31T05:13:01.511Z,98330.44
2022-12-31T05:15:28.082Z,98314.44
2022-12-31T05:17:54.815Z,98320.53
2022-12-31T05:20:22.709Z,98324.09
2022-12-31T05:22:49.297Z,98313.41
2022-12-31T05:25:16.123Z,98324.78
2022-12-31T05:27:42.960Z,98334.13
2022-12-31T05:30:10.830Z,98342.16
2022-12-31T05:32:37.911Z,98346.06
2022-12-31T05:35:05.601Z,98319.91
2022-12-31T05:37:34.101Z,98325.44
2022-12-31T05:40:00.685Z,98329.06
2022-12-31T05:42:28.507Z,98335.31
2022-12-31T05:44:55.188Z,98348.63
2022-12-31T05:47:22.235Z,98345.00
2022-12-31T05:49:48.980Z,98344.56
2022-12-31T05:52:15.541Z,98341.41
2022-12-31T05:54:43.664Z,98351.19
2022-12-31T05:57:10.268Z,98357.16
2022-12-31T05:59:36.877Z,98366.53
2022-12-31T06:02:03.455Z,98370.38
2022-12-31T06:04:30.312Z,98359.88
2022-12-31T06:06:57.001Z,98356.72
2022-12-31T06:09:23.786Z,98360.28
2022-12-31T06:11:51.864Z,98379.97
2022-12-31T06:14:18.397Z,98363.66
2022-12-31T06:16:45.135Z,98364.34
2022-12-31T06:19:11.688Z,98366.97
2022-12-31T06:21:38.187Z,98371.06
2022-12-31T06:24:05.370Z,98352.81
2022-12-31T06:26:31.919Z,98359.88
2022-12-31T06:28:59.970Z,98368.16
2022-12-31T06:31:26.538Z,98363.59
2022-12-31T06:33:53.415Z,98343.28
2022-12-31T06:36:19.947Z,98374.53
2022-12-31T06:38:46.595Z,98366.44
2022-12-31T06:41:15.097Z,98375.44
2022-12-31T06:43:42.611Z,98389.47
2022-12-31T06:46:13.736Z,98382.41
2022-12-31T06:48:41.005Z,98382.59
2022-12-31T06:51:16.568Z,98372.78
2022-12-31T06:53:43.834Z,98393.41
2022-12-31T06:56:15.436Z,98380.22
2022-12-31T06:58:42.643Z,98384.97
2022-12-31T07:01:27.955Z,98370.84
2022-12-31T07:04:01.396Z,98384.59
2022-12-31T07:06:33.195Z,98381.44
2022-12-31T07:09:05.805Z,98395.09
2022-12-31T07:11:38.905Z,98398.31
2022-12-31T07:14:17.532Z,98395.22
2022-12-31T07:16:55.129Z,98401.19
2022-12-31T07:19:35.839Z,98419.47
2022-12-31T07:22:03.067Z,98410.84
2022-12-31T07:24:30.260Z,98420.69
2022-12-31T07:27:08.198Z,98436.00
2022-12-31T07:29:49.834Z,98418.69
2022-12-31T07:32:32.843Z,98441.03
2022-12-31T07:35:09.221Z,98429.88
2022-12-31T07:37:43.756Z,98438.53
2022-12-31T07:40:18.430Z,98439.69
2022-12-31T07:43:02.995Z,98452.16
2022-12-31T07:45:37.604Z,98442.00
2022-12-31T07:48:24.723Z,98450.63
2022-12-31T07:50:53.661Z,98453.47
2022-12-31T07:53:21.071Z,98446.56
2022-12-31T07:55:52.069Z,98450.19
2022-12-31T07:58:24.978Z,98447.75
2022-12-31T08:00:53.484Z,98456.91
2022-12-31T08:03:38.382Z,98444.88
2022-12-31T08:06:11.661Z,98467.16
2022-12-31T08:08:48.226Z,98457.38
2022-12-31T08:11:24.901Z,98462.09
2022-12-31T08:13:54.173Z,98465.59
2022-12-31T08:16:21.328Z,98463.59
2022-12-31T08:18:50.030Z,98467.16
2022-12-31T08:21:35.025Z,98483.84
2022-12-31T08:24:16.134Z,98487.81
2022-12-31T08:26:53.541Z,98475.88
2022-12-31T08:29:35.658Z,98482.06
2022-12-31T08:32:10.614Z,98504.03
2022-12-31T08:34:47.689Z,98486.84
2022-12-31T08:37:23.575Z,98486.97
2022-12-31T08:40:07.558Z,98493.56
2022-12-31T08:42:43.839Z,98471.97
2022-12-31T08:45:17.209Z,98497.78
2022-12-31T08:47:57.980Z,98494.34
2022-12-31T08:50:28.653Z,98491.97
2022-12-31T08:52:56.023Z,98488.50
2022-12-31T08:55:23.301Z,98490.81
2022-12-31T08:57:58.544Z,98490.38
2022-12-31T09:00:27.467Z,98484.19
2022-12-31T09:03:24.230Z,98496.09
2022-12-31T09:06:02.243Z,98489.03
2022-12-31T09:08:38.766Z,98494.00
2022-12-31T09:11:16.379Z,98501.47
2022-12-31T09:14:12.752Z,98503.34
2022-12-31T09:16:48.608Z,98509.34
2022-12-31T09:19:15.220Z,98525.38
2022-12-31T09:21:43.658Z,98518.25
2022-12-31T09:24:12.189Z,98521.09
2022-12-31T09:26:48.242Z,98512.00
2022-12-31T09:29:35.570Z,98523.25
2022-12-31T09:32:09.190Z,98517.03
2022-12-31T09:34:41.727Z,98521.78
2022-12-31T09:37:16.337Z,98515.53
2022-12-31T09:39:45.404Z,98528.44
2022-12-31T09:42:51.160Z,98527.69
2022-12-31T09:45:59.924Z,98532.00
2022-12-31T09:48:58.683Z,98533.53
2022-12-31T09:51:29.687Z,98554.59
2022-12-31T09:54:36.541Z,98544.81
2022-12-31T09:57:36.836Z,98538.97
2022-12-31T10:00:09.905Z,98549.47
2022-12-31T10:03:00.529Z,98560.97
2022-12-31T10:05:56.387Z,98558.59
2022-12-31T10:08:38.477Z,98553.53
2022-12-31T10:11:16.697Z,98547.19
2022-12-31T10:13:55.099Z,98541.34
2022-12-31T10:16:44.010Z,98538.91
2022-12-31T10:19:39.455Z,98552.25
2022-12-31T10:22:24.854Z,98551.63
2022-12-31T10:25:19.561Z,98542.28
2022-12-31T10:27:54.739Z,98544.63
2022-12-31T10:30:23.093Z,98551.63
2022-12-31T10:33:04.931Z,98545.44
2022-12-31T10:35:39.713Z,98547.81
2022-12-31T10:38:20.913Z,98559.63
2022-12-31T10:41:14.654Z,98582.72
2022-12-31T10:44:14.734Z,98594.75
2022-12-31T10:47:09.009Z,98601.53
2022-12-31T10:50:03.993Z,98600.00
2022-12-31T10:53:06.581Z,98598.00
2022-12-31T10:56:07.581Z,98611.72
2022-12-31T10:59:09.566Z,98613.75
2022-12-31T11:01:48.207Z,98623.13
2022-12-31T11:04:49.055Z,98636.47
2022-12-31T11:07:43.257Z,98630.25
2022-12-31T11:10:47.450Z,98610.38
2022-12-31T11:13:48.665Z,98610.09
2022-12-31T11:16:34.358Z,98607.72
2022-12-31T11:19:10.167Z,98606.91
2022-12-31T11:21:49.654Z,98615.47
2022-12-31T11:24:29.725Z,98610.28
2022-12-31T11:27:13.464Z,98607.09
2022-12-31T11:29:52.608Z,98605.16
2022-12-31T11:32:37.899Z,98607.03
2022-12-31T11:35:36.945Z,98617.28
2022-12-31T11:38:14.737Z,98609.84
2022-12-31T11:40:46.369Z,98618.88
2022-12-31T11:43:23.588Z,98618.50
2022-12-31T11:46:16.832Z,98613.00
2022-12-31T11:48:52.375Z,98624.41
2022-12-31T11:51:39.562Z,98625.56
2022-12-31T11:54:39.740Z,98618.22
2022-12-31T11:57:16.521Z,98622.63
2022-12-31T11:59:43.131Z,98616.50
2022-12-31T12:02:24.311Z,98613.78
2022-12-31T12:04:51.916Z,98602.16
2022-12-31T12:07:21.510Z,98592.75
2022-12-31T12:09:48.914Z,98590.81
2022-12-31T12:12:15.434Z,98594.41
2022-12-31T12:14:44.117Z,98594.03
2022-12-31T12:17:16.454Z,98584.63
2022-12-31T12:19:46.462Z,98590.91
2022-12-31T12:22:19.707Z,98598.75
2022-12-31T12:24:54.628Z,98609.28
2022-12-31T12:27:23.792Z,98602.22
2022-12-31T12:29:50.431Z,98611.63
2022-12-31T12:32:18.991Z,98604.97
2022-12-31T12:34:49.616Z,98612.06
2022-12-31T12:37:28.950Z,98613.28
2022-12-31T12:39:58.833Z,98599.53
2022-12-31T12:42:25.551Z,98604.25
2022-12-31T12:45:01.701Z,98608.16
2022-12-31T12:47:28.774Z,98601.50
2022-12-31T12:49:55.746Z,98612.06
2022-12-31T12:52:43.138Z,98607.38
2022-12-31T12:55:19.614Z,98607.78
2022-12-31T12:57:53.936Z,98607.75
2022-12-31T13:00:21.959Z,98596.41
2022-12-31T13:03:17.360Z,98592.00
2022-12-31T13:05:58.442Z,98615.09
2022-12-31T13:08:51.543Z,98606.19
2022-12-31T13:11:32.606Z,98609.72
2022-12-31T13:14:06.043Z,98606.97
2022-12-31T13:16:40.355Z,98608.28
2022-12-31T13:19:14.783Z,98594.25
2022-12-31T13:21:48.894Z,98591.91
2022-12-31T13:24:36.349Z,98602.59
2022-12-31T13:27:12.545Z,98595.94
2022-12-31T13:29:41.977Z,98598.69
2022-12-31T13:32:15.253Z,98600.63
2022-12-31T13:34:45.551Z,98597.88
2022-12-31T13:37:22.592Z,98589.56
2022-12-31T13:40:01.314Z,98593.84
2022-12-31T13:42:39.344Z,98594.16
2022-12-31T13:45:13.374Z,98592.53
2022-12-31T13:47:44.551Z,98592.09
2022-12-31T13:50:19.663Z,98596.31
2022-12-31T13:52:52.186Z,98588.44
2022-12-31T13:55:22.824Z,98601.00
2022-12-31T13:57:53.951Z,98611.53
2022-12-31T14:00:23.237Z,98618.47
2022-12-31T14:02:59.216Z,98616.50
2022-12-31T14:05:31.974Z,98619.63
2022-12-31T14:08:01.485Z,98630.53
2022-12-31T14:10:40.126Z,98630.13
2022-12-31T14:13:35.005Z,98622.22
2022-12-31T14:16:11.535Z,98628.50
2022-12-31T14:18:47.715Z,98646.88
2022-12-31T14:21:20.976Z,98617.44
2022-12-31T14:23:53.780Z,98612.31
2022-12-31T14:26:24.591Z,98626.34
2022-12-31T14:29:04.159Z,98633.03
2022-12-31T14:31:45.059Z,98628.69
2022-12-31T14:34:18.555Z,98646.28
2022-12-31T14:36:57.197Z,98644.63
2022-12-31T14:39:36.481Z,98655.19
2022-12-31T14:42:12.798Z,98657.81
2022-12-31T14:44:56.851Z,98665.25
2022-12-31T14:47:36.812Z,98669.63
2022-12-31T14:50:09.536Z,98680.97
2022-12-31T14:52:49.361Z,98679.72
2022-12-31T14:55:27.826Z,98679.25
2022-12-31T14:58:26.586Z,98683.47
2022-12-31T15:00:53.092Z,98686.50
2022-12-31T15:03:24.948Z,98676.31
2022-12-31T15:05:54.452Z,98695.41
2022-12-31T15:08:39.433Z,98673.84
2022-12-31T15:11:18.146Z,98688.00
2022-12-31T15:14:02.199Z,98696.13
2022-12-31T15:16:43.775Z,98696.78
2022-12-31T15:19:49.518Z,98709.56
2022-12-31T15:22:30.055Z,98688.72
2022-12-31T15:24:56.778Z,98706.59
2022-12-31T15:27:34.001Z,98702.25
2022-12-31T15:30:01.536Z,98688.94
2022-12-31T15:32:36.537Z,98690.84
2022-12-31T15:35:05.045Z,98693.50
2022-12-31T15:37:34.072Z,98688.13
2022-12-31T15:40:19.760Z,98690.84
2022-12-31T15:42:50.322Z,98698.25
2022-12-31T15:45:23.094Z,98696.66
2022-12-31T15:47:56.367Z,98697.50
2022-12-31T15:50:24.978Z,98685.34
2022-12-31T15:52:53.924Z,98699.78
2022-12-31T15:55:27.015Z,98698.19
2022-12-31T15:57:55.415Z,98693.50
2022-12-31T16:00:23.759Z,98689.16
2022-12-31T16:02:54.368Z,98696.13
2022-12-31T16:05:23.577Z,98694.09
2022-12-31T16:07:53.682Z,98697.06
2022-12-31T16:10:26.796Z,98692.75
2022-12-31T16:12:54.972Z,98687.34
2022-12-31T16:15:23.476Z,98680.72
2022-12-31T16:18:03.072Z,98681.31
2022-12-31T16:20:31.327Z,98683.34
2022-12-31T16:22:59.848Z,98693.09
2022-12-31T16:25:31.459Z,98688.50
2022-12-31T16:28:01.816Z,98686.69
2022-12-31T16:30:31.060Z,98686.75
2022-12-31T16:33:01.890Z,98678.81
2022-12-31T16:35:30.275Z,98671.41
2022-12-31T16:38:14.974Z,98688.34
2022-12-31T16:40:43.299Z,98693.97
2022-12-31T16:43:25.736Z,98690.56
2022-12-31T16:45:52.740Z,98695.03
2022-12-31T16:48:20.977Z,98698.34
2022-12-31T16:50:50.599Z,98702.75
2022-12-31T16:53:20.658Z,98714.06
2022-12-31T16:55:53.001Z,98703.41
2022-12-31T17:00:51.638Z,98683.81
2022-12-31T17:03:22.487Z,98704.56
2022-12-31T17:06:02.009Z,98694.97
2022-12-31T17:08:38.684Z,98703.81
2022-12-31T17:11:05.505Z,98701.47
2022-12-31T17:13:34.953Z,98704.81
2022-12-31T17:16:02.068Z,98696.47
2022-12-31T17:18:36.150Z,98697.38
2022-12-31T17:21:07.775Z,98699.44
2022-12-31T17:23:36.853Z,98698.34
2022-12-31T17:26:09.704Z,98699.22
2022-12-31T17:28:43.262Z,98702.63
2022-12-31T17:31:27.924Z,98706.44
2022-12-31T17:34:29.143Z,98700.97
2022-12-31T17:37:14.432Z,98698.78
2022-12-31T17:39:49.970Z,98708.22
2022-12-31T17:42:24.925Z,98709.94
2022-12-31T17:44:55.694Z,98711.84
2022-12-31T17:47:22.418Z,98709.38
2022-12-31T17:49:50.551Z,98692.09
2022-12-31T17:52:17.100Z,98695.81
2022-12-31T17:54:43.651Z,98692.94
2022-12-31T17:57:23.743Z,98689.22
2022-12-31T17:59:50.408Z,98698.28
2022-12-31T18:02:17.239Z,98692.22
2022-12-31T18:04:43.872Z,98711.69
2022-12-31T18:07:11.772Z,98705.69
2022-12-31T18:09:38.462Z,98705.47
2022-12-31T18:12:06.551Z,98697.63
2022-12-31T18:14:33.503Z,98721.03
2022-12-31T18:17:00.080Z,98715.72
2022-12-31T18:22:15.836Z,98725.13
2022-12-31T18:24:42.651Z,98715.88
2022-12-31T18:27:15.162Z,98715.41
2022-12-31T18:29:41.704Z,98718.06
2022-12-31T18:32:19.782Z,98718.97
2022-12-31T18:34:46.373Z,98725.97
2022-12-31T18:37:21.264Z,98722.88
2022-12-31T18:39:48.491Z,98735.34
2022-12-31T18:42:17.388Z,98730.63
2022-12-31T18:44:44.557Z,98731.88
2022-12-31T18:47:12.419Z,98728.13
2022-12-31T18:49:39.371Z,98718.72
2022-12-31T18:52:06.178Z,98712.09
2022-12-31T18:54:34.024Z,98717.78
2022-12-31T18:57:00.746Z,98715.25
2022-12-31T18:59:27.333Z,98715.06
2022-12-31T19:01:54.038Z,98712.22
2022-12-31T19:04:26.923Z,98711.88
2022-12-31T19:06:54.753Z,98693.34
2022-12-31T19:09:44.560Z,98683.34
2022-12-31T19:12:13.264Z,98673.09
2022-12-31T19:14:39.972Z,98689.00
2022-12-31T19:19:31.988Z,98698.88
2022-12-31T19:21:58.541Z,98687.38
2022-12-31T19:24:26.649Z,98686.63
2022-12-31T19:26:54.392Z,98684.53
2022-12-31T19:29:24.262Z,98687.22
2022-12-31T19:31:51.444Z,98673.63
2022-12-31T19:34:18.536Z,98687.28
2022-12-31T19:36:46.836Z,98690.41
2022-12-31T19:39:19.133Z,98694.31
2022-12-31T19:41:47.549Z,98706.63
2022-12-31T19:44:19.143Z,98702.66
2022-12-31T19:46:47.463Z,98702.13
2022-12-31T19:49:14.426Z,98683.34
2022-12-31T19:51:42.043Z,98692.63
2022-12-31T19:54:08.756Z,98691.78
2022-12-31T19:56:35.627Z,98687.53
2022-12-31T19:59:04.275Z,98695.09
2022-12-31T20:01:30.895Z,98698.63
2022-12-31T20:03:58.899Z,98719.56
2022-12-31T20:06:25.453Z,98701.63
2022-12-31T20:08:52.208Z,98706.53
2022-12-31T20:11:20.707Z,98708.78
2022-12-31T20:13:48.815Z,98711.00
2022-12-31T20:16:18.205Z,98709.28
2022-12-31T20:18:46.412Z,98707.69
2022-12-31T20:21:16.371Z,98727.00
2022-12-31T20:23:43.363Z,98717.00
2022-12-31T20:26:12.904Z,98717.22
2022-12-31T20:28:40.087Z,98753.72
2022-12-31T20:31:07.513Z,98731.53
2022-12-31T20:33:34.229Z,98727.22
2022-12-31T20:36:01.760Z,98740.84
2022-12-31T20:38:29.840Z,98737.88
2022-12-31T20:41:02.681Z,98738.72
2022-12-31T20:43:30.182Z,98742.56
2022-12-31T20:45:56.695Z,98748.38
2022-12-31T20:48:23.469Z,98741.34
2022-12-31T20:50:54.388Z,98741.47
2022-12-31T20:53:20.900Z,98753.19
2022-12-31T20:55:48.951Z,98748.09
2022-12-31T20:58:16.040Z,98746.66
2022-12-31T21:00:47.814Z,98765.31
2022-12-31T21:03:36.625Z,98749.91
2022-12-31T21:06:01.297Z,98747.69
2022-12-31T21:08:34.384Z,98751.91
2022-12-31T21:11:03.263Z,98741.06
2022-12-31T21:13:29.783Z,98747.50
2022-12-31T21:15:56.349Z,98750.09
2022-12-31T21:18:23.127Z,98745.28
2022-12-31T21:20:51.580Z,98760.56
2022-12-31T21:23:19.852Z,98760.47
2022-12-31T21:25:49.523Z,98771.19
2022-12-31T21:28:17.429Z,98752.69
2022-12-31T21:30:44.005Z,98769.63
2022-12-31T21:33:10.711Z,98773.53
2022-12-31T21:35:44.529Z,98766.88
2022-12-31T21:38:15.615Z,98774.09
2022-12-31T21:40:42.384Z,98772.28
2022-12-31T21:43:08.915Z,98766.28
2022-12-31T21:45:37.123Z,98786.31
2022-12-31T21:48:04.373Z,98783.50
2022-12-31T21:50:30.905Z,98791.66
2022-12-31T21:52:57.449Z,98798.16
2022-12-31T21:55:23.993Z,98806.66
2022-12-31T21:58:24.899Z,98798.25
2022-12-31T22:00:42.677Z,98799.59
2022-12-31T22:03:11.858Z,98806.66
2022-12-31T22:05:39.177Z,98816.00
2022-12-31T22:08:05.759Z,98809.84
2022-12-31T22:10:36.977Z,98816.88
2022-12-31T22:13:04.299Z,98831.03
2022-12-31T22:15:30.859Z,98818.59
2022-12-31T22:17:58.940Z,98832.97
2022-12-31T22:20:27.966Z,98836.84
2022-12-31T22:22:55.231Z,98838.34
2022-12-31T22:25:21.842Z,98837.34
2022-12-31T22:28:04.464Z,98841.75
2022-12-31T22:30:34.990Z,98833.84
2022-12-31T22:33:03.007Z,98841.41
2022-12-31T22:35:29.625Z,98852.88
2022-12-31T22:38:00.204Z,98840.78
2022-12-31T22:40:29.943Z,98854.84
2022-12-31T22:42:56.505Z,98860.81
2022-12-31T22:45:23.116Z,98855.06
2022-12-31T22:47:49.816Z,98849.00
2022-12-31T22:50:18.300Z,98852.50
2022-12-31T22:52:44.832Z,98838.34
2022-12-31T22:55:11.711Z,98845.47
2022-12-31T22:57:38.283Z,98851.72
2022-12-31T23:00:10.843Z,98853.84
2022-12-31T23:02:41.663Z,98842.56
2022-12-31T23:05:15.263Z,98844.31
2022-12-31T23:07:44.335Z,98842.81
2022-12-31T23:10:11.028Z,98847.22
2022-12-31T23:12:37.746Z,98861.41
2022-12-31T23:15:04.970Z,98858.25
2022-12-31T23:17:32.264Z,98874.53
2022-12-31T23:19:59.093Z,98860.97
2022-12-31T23:22:25.627Z,98855.59
2022-12-31T23:24:53.784Z,98856.56
2022-12-31T23:27:20.333Z,98859.28
2022-12-31T23:29:47.788Z,98865.72
2022-12-31T23:32:15.783Z,98858.13
2022-12-31T23:34:42.806Z,98851.72
2022-12-31T23:37:09.334Z,98855.25
2022-12-31T23:39:36.035Z,98858.16
2022-12-31T23:42:04.359Z,98862.53
2022-12-31T23:44:31.057Z,98855.47
2022-12-31T23:46:57.707Z,98860.78
2022-12-31T23:49:24.472Z,98866.34
2022-12-31T23:51:51.050Z,98861.50
2022-12-31T23:54:17.596Z,98856.81
2022-12-31T23:56:44.326Z,98875.78
2022-12-31T23:59:12.847Z,98865.81
